Time,TemperatureF,DewpointF,PressureIn,WindDirection,WindDirectionDegrees,WindSpeedMPH,WindSpeedGustMPH,Humidity,HourlyPrecipIn,Conditions,Clouds,dailyrainin,SoftwareType,DateUTC
2013-03-13 00:03:00,41.0,28.0,-100.00,WNW,290,4.0,12.0,60,0.00,,,-99.99,,2013-03-13 04:03:00,
2013-03-13 00:13:00,41.0,28.0,-100.00,WNW,285,9.0,14.0,60,0.00,,,-99.99,,2013-03-13 04:13:00,
2013-03-13 00:22:00,41.0,28.0,-100.00,WNW,285,9.0,14.0,60,0.00,,,-99.99,,2013-03-13 04:22:00,
2013-03-13 00:32:00,41.0,28.0,-100.00,West,275,7.0,15.0,60,0.00,,,-99.99,,2013-03-13 04:32:00,
2013-03-13 00:43:00,41.0,28.0,-100.00,NNW,335,7.0,13.0,60,0.00,,,-99.99,,2013-03-13 04:43:00,
2013-03-13 00:52:00,41.0,28.0,-100.00,NNW,335,7.0,13.0,60,0.00,,,-99.99,,2013-03-13 04:52:00,
2013-03-13 01:02:00,41.0,28.0,-100.00,NW,305,2.0,12.0,60,0.00,,,-99.99,,2013-03-13 05:02:00,
2013-03-13 01:22:00,41.0,27.0,-100.00,NW,320,3.0,7.0,59,0.00,,,-99.99,,2013-03-13 05:22:00,
2013-03-13 01:32:00,41.0,27.0,-100.00,NW,320,3.0,7.0,59,0.00,,,-99.99,,2013-03-13 05:32:00,
2013-03-13 01:42:00,40.0,27.0,-100.00,NW,320,3.0,11.0,59,0.00,,,-99.99,,2013-03-13 05:42:00,
2013-03-13 01:52:00,40.0,27.0,-100.00,NW,320,3.0,11.0,59,0.00,,,-99.99,,2013-03-13 05:52:00,
2013-03-13 02:02:00,40.0,26.0,-100.00,NW,315,7.0,11.0,58,0.00,,,-99.99,,2013-03-13 06:02:00,
2013-03-13 02:13:00,39.0,27.0,-100.00,NW,310,2.0,6.0,60,0.00,,,-99.99,,2013-03-13 06:13:00,
2013-03-13 02:23:00,39.0,27.0,-100.00,NW,310,2.0,6.0,60,0.00,,,-99.99,,2013-03-13 06:23:00,
2013-03-13 02:32:00,38.0,27.0,-100.00,SSW,210,0.0,3.0,64,0.00,,,-99.99,,2013-03-13 06:32:00,
2013-03-13 02:42:00,37.0,27.0,-100.00,WNW,290,1.0,3.0,67,0.00,,,-99.99,,2013-03-13 06:42:00,
2013-03-13 02:52:00,37.0,27.0,-100.00,WSW,245,1.0,3.0,69,0.00,,,-99.99,,2013-03-13 06:52:00,
2013-03-13 03:03:00,37.0,27.0,-100.00,WSW,245,1.0,3.0,69,0.00,,,-99.99,,2013-03-13 07:03:00,
2013-03-13 03:12:00,37.0,28.0,-100.00,NW,315,4.0,8.0,70,0.00,,,-99.99,,2013-03-13 07:12:00,
2013-03-13 03:22:00,36.0,27.0,-100.00,WSW,245,0.0,8.0,71,0.00,,,-99.99,,2013-03-13 07:22:00,
2013-03-13 03:33:00,36.0,27.0,-100.00,WSW,245,0.0,8.0,71,0.00,,,-99.99,,2013-03-13 07:33:00,
2013-03-13 03:42:00,35.0,27.0,-100.00,NW,320,0.0,2.0,75,0.00,,,-99.99,,2013-03-13 07:42:00,
2013-03-13 03:52:00,34.0,28.0,-100.00,North,5,1.0,2.0,77,0.00,,,-99.99,,2013-03-13 07:52:00,
2013-03-13 04:03:00,34.0,28.0,-100.00,North,5,1.0,2.0,77,0.00,,,-99.99,,2013-03-13 08:03:00,
2013-03-13 04:12:00,34.0,28.0,-100.00,NW,305,2.0,2.0,79,0.00,,,-99.99,,2013-03-13 08:12:00,
2013-03-13 04:22:00,34.0,28.0,-100.00,NW,305,2.0,2.0,79,0.00,,,-99.99,,2013-03-13 08:22:00,
2013-03-13 04:32:00,33.0,29.0,-100.00,NW,310,0.0,1.0,82,0.00,,,-99.99,,2013-03-13 08:32:00,
2013-03-13 04:43:00,33.0,29.0,-100.00,NNW,330,0.0,1.0,82,0.00,,,-99.99,,2013-03-13 08:43:00,
2013-03-13 04:53:00,32.0,28.0,-100.00,South,180,0.0,2.0,84,0.00,,,-99.99,,2013-03-13 08:53:00,
2013-03-13 05:02:00,32.0,28.0,-100.00,South,180,0.0,2.0,84,0.00,,,-99.99,,2013-03-13 09:02:00,
2013-03-13 05:12:00,34.0,30.0,-100.00,WSW,255,1.0,4.0,86,0.00,,,-99.99,,2013-03-13 09:12:00,
2013-03-13 05:22:00,34.0,30.0,-100.00,WSW,255,1.0,4.0,86,0.00,,,-99.99,,2013-03-13 09:22:00,
2013-03-13 05:32:00,35.0,31.0,-100.00,SW,235,0.0,2.0,86,0.00,,,-99.99,,2013-03-13 09:32:00,
2013-03-13 05:42:00,34.0,30.0,-100.00,WSW,245,0.0,2.0,86,0.00,,,-99.99,,2013-03-13 09:42:00,
2013-03-13 05:52:00,34.0,30.0,-100.00,WSW,245,0.0,2.0,86,0.00,,,-99.99,,2013-03-13 09:52:00,
2013-03-13 06:02:00,34.0,31.0,-100.00,North,10,0.0,2.0,87,0.00,,,-99.99,,2013-03-13 10:02:00,
2013-03-13 06:12:00,33.0,30.0,-100.00,WSW,240,0.0,2.0,88,0.00,,,-99.99,,2013-03-13 10:12:00,
2013-03-13 06:22:00,33.0,30.0,-100.00,WSW,240,0.0,2.0,88,0.00,,,-99.99,,2013-03-13 10:22:00,
2013-03-13 06:32:00,33.0,31.0,-100.00,North,10,0.0,4.0,88,0.00,,,-99.99,,2013-03-13 10:32:00,
2013-03-13 06:42:00,33.0,31.0,-100.00,NNE,30,1.0,2.0,89,0.00,,,-99.99,,2013-03-13 10:42:00,
2013-03-13 06:52:00,33.0,31.0,-100.00,NNE,30,1.0,2.0,89,0.00,,,-99.99,,2013-03-13 10:52:00,
2013-03-13 07:02:00,33.0,30.0,-100.00,NE,35,1.0,3.0,89,0.00,,,-99.99,,2013-03-13 11:02:00,
2013-03-13 07:13:00,33.0,31.0,-100.00,SSE,165,0.0,0.0,90,0.00,,,-99.99,,2013-03-13 11:13:00,
2013-03-13 07:22:00,33.0,31.0,-100.00,SSE,165,0.0,0.0,90,0.00,,,-99.99,,2013-03-13 11:22:00,
2013-03-13 07:32:00,33.0,30.0,-100.00,East,85,0.0,2.0,90,0.00,,,-99.99,,2013-03-13 11:32:00,
2013-03-13 07:42:00,33.0,30.0,-100.00,NNW,345,0.0,2.0,90,0.00,,,-99.99,,2013-03-13 11:42:00,
2013-03-13 07:52:00,33.0,30.0,-100.00,NNW,345,0.0,2.0,90,0.00,,,-99.99,,2013-03-13 11:52:00,
2013-03-13 08:02:00,32.0,30.0,-100.00,NNE,15,2.0,3.0,91,0.00,,,-99.99,,2013-03-13 12:02:00,
2013-03-13 08:12:00,32.0,30.0,-100.00,North,5,0.0,3.0,91,0.00,,,-99.99,,2013-03-13 12:12:00,
2013-03-13 08:22:00,32.0,30.0,-100.00,North,5,0.0,3.0,91,0.00,,,-99.99,,2013-03-13 12:22:00,
2013-03-13 08:32:00,33.0,31.0,-100.00,NE,35,1.0,3.0,92,0.00,,,-99.99,,2013-03-13 12:32:00,
2013-03-13 08:42:00,34.0,32.0,-100.00,NNW,335,0.0,4.0,92,0.00,,,-99.99,,2013-03-13 12:42:00,
2013-03-13 08:52:00,35.0,33.0,-100.00,WSW,255,0.0,4.0,92,0.00,,,-99.99,,2013-03-13 12:52:00,
2013-03-13 09:02:00,35.0,33.0,-100.00,WSW,255,0.0,4.0,92,0.00,,,-99.99,,2013-03-13 13:02:00,
2013-03-13 09:12:00,37.0,35.0,-100.00,South,170,0.0,2.0,91,0.00,,,-99.99,,2013-03-13 13:12:00,
2013-03-13 09:22:00,37.0,34.0,-100.00,SW,225,2.0,4.0,91,0.00,,,-99.99,,2013-03-13 13:22:00,
2013-03-13 09:33:00,37.0,34.0,-100.00,SW,225,2.0,4.0,91,0.00,,,-99.99,,2013-03-13 13:33:00,
2013-03-13 09:43:00,37.0,34.0,-100.00,West,260,2.0,4.0,91,0.00,,,-99.99,,2013-03-13 13:43:00,
2013-03-13 09:52:00,38.0,35.0,-100.00,West,275,6.0,12.0,90,0.00,,,-99.99,,2013-03-13 13:52:00,
2013-03-13 10:02:00,38.0,35.0,-100.00,West,275,6.0,12.0,90,0.00,,,-99.99,,2013-03-13 14:02:00,
2013-03-13 10:12:00,39.0,34.0,-100.00,West,270,7.0,12.0,81,0.00,,,-99.99,,2013-03-13 14:12:00,
2013-03-13 10:22:00,39.0,34.0,-100.00,West,270,7.0,12.0,81,0.00,,,-99.99,,2013-03-13 14:22:00,
2013-03-13 10:33:00,41.0,31.0,-100.00,WNW,300,6.0,17.0,69,0.00,,,-99.99,,2013-03-13 14:33:00,
2013-03-13 10:42:00,40.0,28.0,-100.00,NW,315,10.0,19.0,62,0.00,,,-99.99,,2013-03-13 14:42:00,
2013-03-13 10:52:00,40.0,28.0,-100.00,NW,315,10.0,19.0,62,0.00,,,-99.99,,2013-03-13 14:52:00,
2013-03-13 11:03:00,42.0,26.0,-100.00,NW,315,5.0,12.0,54,0.00,,,-99.99,,2013-03-13 15:03:00,
2013-03-13 11:12:00,42.0,24.0,-100.00,NW,310,9.0,20.0,48,0.00,,,-99.99,,2013-03-13 15:12:00,
2013-03-13 11:22:00,42.0,24.0,-100.00,NW,310,9.0,20.0,48,0.00,,,-99.99,,2013-03-13 15:22:00,
2013-03-13 11:32:00,42.0,20.0,-100.00,NNW,340,12.0,22.0,42,0.00,,,-99.99,,2013-03-13 15:32:00,
2013-03-13 11:42:00,43.0,21.0,-100.00,NW,310,6.0,21.0,40,0.00,,,-99.99,,2013-03-13 15:42:00,
2013-03-13 11:52:00,43.0,21.0,-100.00,NW,310,6.0,21.0,40,0.00,,,-99.99,,2013-03-13 15:52:00,
2013-03-13 12:03:00,42.0,21.0,-100.00,NW,310,13.0,22.0,42,0.00,,,-99.99,,2013-03-13 16:03:00,
2013-03-13 12:12:00,42.0,21.0,-100.00,NW,310,11.0,22.0,43,0.00,,,-99.99,,2013-03-13 16:12:00,
2013-03-13 12:22:00,42.0,21.0,-100.00,NW,310,11.0,22.0,43,0.00,,,-99.99,,2013-03-13 16:22:00,
2013-03-13 12:32:00,43.0,22.0,-100.00,NW,305,6.0,21.0,43,0.00,,,-99.99,,2013-03-13 16:32:00,
2013-03-13 12:42:00,42.0,22.0,-100.00,NW,315,12.0,21.0,44,0.00,,,-99.99,,2013-03-13 16:42:00,
2013-03-13 12:52:00,42.0,22.0,-100.00,NW,315,12.0,21.0,44,0.00,,,-99.99,,2013-03-13 16:52:00,
2013-03-13 13:03:00,42.0,22.0,-100.00,NW,325,12.0,24.0,45,0.00,,,-99.99,,2013-03-13 17:03:00,
2013-03-13 13:12:00,41.0,23.0,-100.00,NW,320,12.0,21.0,48,0.00,,,-99.99,,2013-03-13 17:12:00,
2013-03-13 13:22:00,41.0,25.0,-100.00,West,270,7.0,17.0,51,0.00,,,-99.99,,2013-03-13 17:22:00,
2013-03-13 13:33:00,41.0,25.0,-100.00,West,270,7.0,17.0,51,0.00,,,-99.99,,2013-03-13 17:33:00,
2013-03-13 13:42:00,43.0,25.0,-100.00,NW,315,10.0,17.0,50,0.00,,,-99.99,,2013-03-13 17:42:00,
2013-03-13 13:53:00,43.0,24.0,-100.00,West,280,7.0,17.0,47,0.00,,,-99.99,,2013-03-13 17:53:00,
2013-03-13 14:02:00,43.0,24.0,-100.00,West,280,7.0,17.0,47,0.00,,,-99.99,,2013-03-13 18:02:00,
2013-03-13 14:12:00,43.0,25.0,-100.00,WNW,300,6.0,20.0,48,0.00,,,-99.99,,2013-03-13 18:12:00,
2013-03-13 14:22:00,43.0,25.0,-100.00,WNW,300,6.0,20.0,48,0.00,,,-99.99,,2013-03-13 18:22:00,
2013-03-13 14:33:00,43.0,23.0,-100.00,NW,305,13.0,22.0,45,0.00,,,-99.99,,2013-03-13 18:33:00,
2013-03-13 14:42:00,43.0,23.0,-100.00,West,280,14.0,28.0,45,0.00,,,-99.99,,2013-03-13 18:42:00,
2013-03-13 14:52:00,42.0,23.0,-100.00,NW,310,13.0,28.0,47,0.00,,,-99.99,,2013-03-13 18:52:00,
2013-03-13 15:03:00,42.0,23.0,-100.00,NW,310,13.0,28.0,47,0.00,,,-99.99,,2013-03-13 19:03:00,
2013-03-13 15:12:00,40.0,32.0,-100.00,North,0,4.0,21.0,72,0.00,,,-99.99,,2013-03-13 19:12:00,
2013-03-13 15:22:00,39.0,30.0,-100.00,NW,315,9.0,23.0,70,0.00,,,-99.99,,2013-03-13 19:22:00,
2013-03-13 15:32:00,39.0,30.0,-100.00,NW,315,9.0,23.0,70,0.00,,,-99.99,,2013-03-13 19:32:00,
2013-03-13 15:43:00,41.0,30.0,-100.00,NNW,345,7.0,19.0,65,0.00,,,-99.99,,2013-03-13 19:43:00,
2013-03-13 15:52:00,40.0,28.0,-100.00,NW,325,14.0,22.0,62,0.00,,,-99.99,,2013-03-13 19:52:00,
2013-03-13 16:02:00,40.0,28.0,-100.00,NW,325,14.0,22.0,62,0.00,,,-99.99,,2013-03-13 20:02:00,
2013-03-13 16:12:00,41.0,28.0,-100.00,NNW,340,9.0,29.0,60,0.00,,,-99.99,,2013-03-13 20:12:00,
2013-03-13 16:22:00,41.0,28.0,-100.00,NNW,340,9.0,29.0,60,0.00,,,-99.99,,2013-03-13 20:22:00,
2013-03-13 16:32:00,41.0,26.0,-100.00,NNW,340,8.0,17.0,55,0.00,,,-99.99,,2013-03-13 20:32:00,
2013-03-13 16:42:00,43.0,25.0,-100.00,WNW,290,10.0,17.0,49,0.00,,,-99.99,,2013-03-13 20:42:00,
2013-03-13 16:52:00,40.0,25.0,-100.00,WNW,295,14.0,26.0,55,0.00,,,-99.99,,2013-03-13 20:52:00,
2013-03-13 17:02:00,40.0,25.0,-100.00,WNW,295,14.0,26.0,55,0.00,,,-99.99,,2013-03-13 21:02:00,
2013-03-13 17:12:00,37.0,31.0,-100.00,North,0,6.0,26.0,77,0.00,,,-99.99,,2013-03-13 21:12:00,
2013-03-13 17:22:00,37.0,31.0,-100.00,North,0,6.0,26.0,77,0.00,,,-99.99,,2013-03-13 21:22:00,
2013-03-13 17:33:00,40.0,29.0,-100.00,NW,310,7.0,18.0,64,0.00,,,-99.99,,2013-03-13 21:33:00,
2013-03-13 17:42:00,38.0,25.0,-100.00,WNW,290,16.0,27.0,60,0.00,,,-99.99,,2013-03-13 21:42:00,
2013-03-13 17:52:00,40.0,27.0,-100.00,North,5,6.0,18.0,60,0.00,,,-99.99,,2013-03-13 21:52:00,
2013-03-13 18:02:00,40.0,27.0,-100.00,North,5,6.0,18.0,60,0.00,,,-99.99,,2013-03-13 22:02:00,
2013-03-13 18:12:00,38.0,26.0,-100.00,NW,315,6.0,14.0,61,0.00,,,-99.99,,2013-03-13 22:12:00,
2013-03-13 18:22:00,38.0,26.0,-100.00,NW,315,6.0,14.0,61,0.00,,,-99.99,,2013-03-13 22:22:00,
2013-03-13 18:32:00,37.0,24.0,-100.00,WNW,295,11.0,22.0,57,0.00,,,-99.99,,2013-03-13 22:32:00,
2013-03-13 18:42:00,37.0,24.0,-100.00,WNW,295,7.0,21.0,57,0.00,,,-99.99,,2013-03-13 22:42:00,
2013-03-13 18:52:00,37.0,24.0,-100.00,WNW,295,7.0,21.0,57,0.00,,,-99.99,,2013-03-13 22:52:00,
2013-03-13 19:02:00,37.0,23.0,-100.00,WNW,290,8.0,14.0,57,0.00,,,-99.99,,2013-03-13 23:02:00,
2013-03-13 19:12:00,36.0,22.0,-100.00,WNW,290,11.0,24.0,57,0.00,,,-99.99,,2013-03-13 23:12:00,
2013-03-13 19:22:00,36.0,22.0,-100.00,WNW,290,11.0,24.0,57,0.00,,,-99.99,,2013-03-13 23:22:00,
2013-03-13 19:32:00,36.0,21.0,-100.00,NW,320,11.0,24.0,54,0.00,,,-99.99,,2013-03-13 23:32:00,
2013-03-13 19:42:00,36.0,21.0,-100.00,NW,325,7.0,22.0,54,0.00,,,-99.99,,2013-03-13 23:42:00,
2013-03-13 19:52:00,33.0,25.0,-100.00,NNW,330,9.0,21.0,72,0.01,,,-99.99,,2013-03-13 23:52:00,
2013-03-13 20:02:00,33.0,25.0,-100.00,NNW,330,9.0,21.0,72,0.01,,,-99.99,,2013-03-14 00:02:00,
2013-03-13 20:12:00,32.0,28.0,-100.00,NW,305,1.0,11.0,83,0.00,,,-99.99,,2013-03-14 00:12:00,
2013-03-13 20:22:00,32.0,29.0,-100.00,WSW,245,4.0,10.0,87,0.00,,,-99.99,,2013-03-14 00:22:00,
2013-03-13 20:32:00,32.0,29.0,-100.00,WSW,245,4.0,10.0,87,0.00,,,-99.99,,2013-03-14 00:32:00,
2013-03-13 20:42:00,32.0,29.0,-100.00,NW,310,9.0,14.0,88,0.00,,,-99.99,,2013-03-14 00:42:00,
2013-03-13 20:52:00,33.0,29.0,-100.00,NW,325,4.0,14.0,84,0.00,,,-99.99,,2013-03-14 00:52:00,
2013-03-13 21:02:00,33.0,29.0,-100.00,NW,325,4.0,14.0,84,0.00,,,-99.99,,2013-03-14 01:02:00,
2013-03-13 21:12:00,32.0,28.0,-100.00,North,0,6.0,14.0,85,0.00,,,-99.99,,2013-03-14 01:12:00,
2013-03-13 21:22:00,32.0,28.0,-100.00,WNW,300,4.0,12.0,83,0.00,,,-99.99,,2013-03-14 01:22:00,
2013-03-13 21:32:00,32.0,28.0,-100.00,WNW,300,4.0,12.0,83,0.00,,,-99.99,,2013-03-14 01:32:00,
2013-03-13 21:42:00,32.0,26.0,-100.00,NW,320,5.0,9.0,79,0.00,,,-99.99,,2013-03-14 01:42:00,
2013-03-13 21:52:00,32.0,26.0,-100.00,NW,320,5.0,9.0,79,0.00,,,-99.99,,2013-03-14 01:52:00,
2013-03-13 22:02:00,32.0,25.0,-100.00,North,0,1.0,12.0,74,0.00,,,-99.99,,2013-03-14 02:02:00,
2013-03-13 22:12:00,32.0,24.0,-100.00,NW,315,4.0,12.0,73,0.00,,,-99.99,,2013-03-14 02:12:00,
2013-03-13 22:22:00,32.0,24.0,-100.00,NNW,335,12.0,20.0,71,0.00,,,-99.99,,2013-03-14 02:22:00,
2013-03-13 22:32:00,32.0,24.0,-100.00,NNW,335,12.0,20.0,71,0.00,,,-99.99,,2013-03-14 02:32:00,
2013-03-13 22:42:00,32.0,24.0,-100.00,NNW,335,12.0,20.0,71,0.00,,,-99.99,,2013-03-14 02:42:00,
2013-03-13 22:51:00,32.0,24.0,-100.00,NNW,335,12.0,20.0,71,0.00,,,-99.99,,2013-03-14 02:51:00,
2013-03-13 23:02:00,33.0,24.0,-100.00,NW,305,6.0,17.0,69,0.00,,,-99.99,,2013-03-14 03:02:00,
2013-03-13 23:12:00,33.0,23.0,-100.00,NW,315,9.0,17.0,68,0.00,,,-99.99,,2013-03-14 03:12:00,
2013-03-13 23:23:00,33.0,23.0,-100.00,NW,315,9.0,17.0,68,0.00,,,-99.99,,2013-03-14 03:23:00,
2013-03-13 23:32:00,33.0,23.0,-100.00,East,85,1.0,17.0,67,0.00,,,-99.99,,2013-03-14 03:32:00,
2013-03-13 23:42:00,32.0,22.0,-100.00,NNW,330,6.0,17.0,66,0.00,,,-99.99,,2013-03-14 03:42:00,
2013-03-13 23:52:00,32.0,22.0,-100.00,NNW,330,6.0,17.0,66,0.00,,,-99.99,,2013-03-14 03:52:00,